Time;durP1;ratioP1;P1;durP2;ratioP2;P2;SDS_P1;SDS_P2;PMS_P1;PMS_P2;Temp;Humidity;BMP_temperature;BMP_pressure;BME280_temperature;BME280_humidity;BME280_pressure;Samples;Min_cycle;Max_cycle;Signal;HPM_P1;HPM_P2
2022/08/23 00:01:00;;;;;;;13.65;4.20;;;18.10;99.90;;;;;;5097413;27;20035;-66
2022/08/23 00:03:25;;;;;;;9.82;3.58;;;18.10;99.90;;;;;;5114168;27;20038;-65
2022/08/23 00:05:51;;;;;;;10.68;3.83;;;18.00;99.90;;;;;;5113795;27;20500;-66
2022/08/23 00:08:17;;;;;;;9.75;3.53;;;17.90;99.90;;;;;;5114057;27;20047;-66
2022/08/23 00:10:42;;;;;;;12.02;4.45;;;18.00;99.90;;;;;;5115599;27;20133;-65
2022/08/23 00:13:09;;;;;;;9.32;4.65;;;18.00;99.90;;;;;;5115458;27;20034;-66
2022/08/23 00:15:35;;;;;;;10.20;4.32;;;18.00;99.90;;;;;;5113915;27;20054;-65
2022/08/23 00:18:01;;;;;;;9.77;4.43;;;18.00;99.90;;;;;;5114292;27;20035;-66
2022/08/23 00:20:26;;;;;;;13.85;5.32;;;18.10;99.90;;;;;;5113402;27;20038;-65
2022/08/23 00:22:52;;;;;;;9.55;4.32;;;18.00;99.90;;;;;;5113513;27;20039;-65
2022/08/23 00:25:18;;;;;;;11.07;4.55;;;18.00;99.90;;;;;;5114352;27;20524;-65
2022/08/23 00:27:44;;;;;;;12.13;5.25;;;17.80;99.90;;;;;;5115415;27;20047;-65
2022/08/23 00:30:11;;;;;;;10.60;4.40;;;17.90;99.90;;;;;;5113841;27;20684;-65
2022/08/23 00:32:38;;;;;;;12.85;4.95;;;17.80;99.90;;;;;;5113925;27;20066;-66
2022/08/23 00:35:05;;;;;;;14.88;4.80;;;17.80;99.90;;;;;;5115200;27;20441;-65
2022/08/23 00:37:32;;;;;;;11.52;4.93;;;17.70;99.90;;;;;;5114759;27;20042;-65
2022/08/23 00:39:59;;;;;;;9.75;4.00;;;17.70;99.90;;;;;;5111374;27;20049;-65
2022/08/23 00:48:15;;;;;;;11.15;4.80;;;17.50;99.90;;;;;;5119539;27;20107;-65
2022/08/23 00:50:50;;;;;;;16.05;6.30;;;17.50;99.90;;;;;;5114868;27;20043;-65
2022/08/23 00:53:24;;;;;;;16.20;6.53;;;17.40;99.90;;;;;;5096754;27;20519;-65
2022/08/23 00:55:56;;;;;;;11.20;6.30;;;17.50;99.90;;;;;;5132969;27;20607;-65
2022/08/23 00:58:22;;;;;;;12.00;6.10;;;17.90;99.90;;;;;;5114903;27;20158;-65
2022/08/23 01:00:49;;;;;;;11.60;6.65;;;18.00;99.90;;;;;;5113622;27;20031;-66
2022/08/23 01:03:17;;;;;;;13.60;6.72;;;18.10;99.90;;;;;;5114237;27;20472;-66
2022/08/23 01:06:07;;;;;;;11.00;5.93;;;18.30;99.90;;;;;;5100620;27;20560;-65
2022/08/23 01:08:35;;;;;;;11.57;4.38;;;18.20;99.90;;;;;;5111383;27;20049;-65
2022/08/23 01:11:14;;;;;;;8.73;4.28;;;18.40;99.90;;;;;;5117162;27;20026;-65
2022/08/23 01:14:14;;;;;;;11.93;4.65;;;18.50;99.90;;;;;;5112583;27;20046;-65
2022/08/23 01:16:51;;;;;;;8.38;4.65;;;18.60;99.90;;;;;;5113265;27;20046;-67
2022/08/23 01:19:39;;;;;;;12.38;4.78;;;18.70;99.90;;;;;;5113693;27;20041;-65
2022/08/23 01:22:33;;;;;;;8.82;4.50;;;18.70;99.90;;;;;;5117335;27;20610;-65
2022/08/23 01:24:59;;;;;;;14.27;5.20;;;18.60;99.90;;;;;;5137040;27;20424;-65
2022/08/23 01:27:26;;;;;;;11.40;4.90;;;18.70;99.90;;;;;;5116829;27;20043;-65
2022/08/23 01:29:52;;;;;;;9.88;4.82;;;18.60;99.90;;;;;;5099777;27;20042;-65
2022/08/23 01:32:18;;;;;;;11.60;5.07;;;18.60;99.90;;;;;;5117505;27;20488;-65
2022/08/23 01:34:44;;;;;;;11.70;4.57;;;18.60;99.90;;;;;;5117606;27;20300;-65
2022/08/23 01:37:10;;;;;;;8.95;4.93;;;18.50;99.90;;;;;;5117957;27;20042;-65
2022/08/23 01:39:36;;;;;;;11.05;5.13;;;18.40;99.90;;;;;;5108604;27;20122;-65
2022/08/23 01:42:03;;;;;;;9.45;4.95;;;18.30;99.90;;;;;;5060307;27;20035;-65
2022/08/23 01:44:29;;;;;;;10.77;5.22;;;18.40;99.90;;;;;;5098719;27;20081;-65
2022/08/23 01:46:54;;;;;;;9.80;5.10;;;18.40;99.90;;;;;;5116499;27;20292;-65
2022/08/23 01:49:20;;;;;;;11.45;5.68;;;18.60;99.90;;;;;;5117144;27;20041;-65
2022/08/23 01:51:46;;;;;;;14.02;6.10;;;18.60;99.90;;;;;;5100791;27;20042;-65
2022/08/23 01:54:12;;;;;;;15.57;6.57;;;18.60;99.90;;;;;;5099576;27;20050;-65
2022/08/23 01:56:39;;;;;;;13.10;6.32;;;18.50;99.90;;;;;;5117198;27;20039;-66
2022/08/23 01:59:07;;;;;;;13.10;5.85;;;18.60;99.90;;;;;;5116997;27;20497;-65
2022/08/23 02:01:34;;;;;;;10.65;5.88;;;18.60;99.90;;;;;;5117185;27;20404;-65
2022/08/23 02:04:00;;;;;;;13.77;6.30;;;18.40;99.90;;;;;;5098334;27;20038;-65
2022/08/23 02:06:26;;;;;;;15.38;7.10;;;18.30;99.90;;;;;;5115617;27;20047;-65
2022/08/23 02:09:01;;;;;;;12.43;6.20;;;18.20;99.90;;;;;;5099931;27;20090;-66
2022/08/23 02:11:38;;;;;;;11.65;5.97;;;18.20;99.90;;;;;;5115827;27;20046;-65
2022/08/23 02:14:07;;;;;;;12.65;5.60;;;18.30;99.90;;;;;;5120380;27;20330;-66
2022/08/23 02:16:37;;;;;;;11.95;6.80;;;18.20;99.90;;;;;;5097121;27;20035;-66
2022/08/23 02:19:08;;;;;;;11.10;6.20;;;18.30;99.90;;;;;;5117363;27;20192;-65
2022/08/23 02:21:35;;;;;;;14.65;6.63;;;18.20;99.90;;;;;;5115677;27;20047;-66
2022/08/23 02:24:05;;;;;;;12.25;6.15;;;18.10;99.90;;;;;;5116405;27;20039;-65
2022/08/23 02:26:31;;;;;;;11.20;6.30;;;17.90;99.90;;;;;;5121357;27;20038;-65
2022/08/23 02:28:56;;;;;;;11.10;6.75;;;17.80;99.90;;;;;;5104336;27;20420;-66
2022/08/23 02:31:22;;;;;;;10.02;7.15;;;17.70;99.90;;;;;;5099191;27;20035;-66
2022/08/23 02:33:48;;;;;;;13.18;6.88;;;17.60;99.90;;;;;;5088844;27;20059;-66
2022/08/23 02:36:14;;;;;;;15.13;6.95;;;17.60;99.90;;;;;;5098819;27;20211;-66
2022/08/23 02:38:40;;;;;;;9.52;6.32;;;17.60;99.90;;;;;;5117240;27;20034;-66
2022/08/23 02:41:06;;;;;;;10.07;6.35;;;17.80;99.90;;;;;;5118493;27;20483;-66
2022/08/23 02:43:32;;;;;;;13.82;7.20;;;17.90;99.90;;;;;;5099229;27;20042;-65
2022/08/23 02:45:58;;;;;;;9.43;6.40;;;18.00;99.90;;;;;;5101671;27;20237;-66
2022/08/23 02:48:24;;;;;;;12.77;6.63;;;18.10;99.90;;;;;;5102083;27;20042;-66
2022/08/23 02:50:51;;;;;;;11.27;6.60;;;18.10;99.90;;;;;;5119067;27;20472;-65
2022/08/23 02:53:17;;;;;;;11.57;6.65;;;18.20;99.90;;;;;;5118324;27;20242;-66
2022/08/23 02:55:46;;;;;;;11.23;6.53;;;18.20;99.90;;;;;;5119229;27;20041;-66
2022/08/23 02:58:13;;;;;;;15.15;7.18;;;18.10;99.90;;;;;;5118428;27;20126;-66
2022/08/23 03:00:38;;;;;;;12.68;6.75;;;18.30;99.90;;;;;;5119349;27;20111;-66
2022/08/23 03:03:04;;;;;;;9.80;6.57;;;18.20;99.90;;;;;;5117861;27;20476;-66
2022/08/23 03:05:30;;;;;;;12.70;7.78;;;18.10;99.90;;;;;;5116458;27;20127;-66
2022/08/23 03:07:56;;;;;;;15.18;7.13;;;18.10;99.90;;;;;;5118907;27;20124;-65
2022/08/23 03:10:22;;;;;;;16.65;8.02;;;18.00;99.90;;;;;;5118409;27;20038;-65
2022/08/23 03:12:48;;;;;;;9.93;7.25;;;17.90;99.90;;;;;;5118513;27;20058;-66
2022/08/23 03:15:14;;;;;;;11.73;8.30;;;17.90;99.90;;;;;;5118812;27;20042;-65
2022/08/23 03:17:40;;;;;;;10.20;8.20;;;17.80;99.90;;;;;;5118457;27;20027;-66
2022/08/23 03:20:06;;;;;;;16.60;9.57;;;17.60;99.90;;;;;;5117832;27;20126;-66
2022/08/23 03:22:32;;;;;;;16.40;11.32;;;17.50;99.90;;;;;;5134922;27;20042;-65
2022/08/23 03:24:58;;;;;;;17.27;12.50;;;17.40;99.90;;;;;;5117311;27;20042;-66
2022/08/23 03:27:24;;;;;;;16.75;12.15;;;17.40;99.90;;;;;;5101755;27;20057;-65
2022/08/23 03:29:49;;;;;;;17.75;12.00;;;17.50;99.90;;;;;;5101243;27;20042;-65
2022/08/23 03:32:15;;;;;;;19.42;12.88;;;17.40;99.90;;;;;;5102251;27;20038;-65
2022/08/23 03:34:41;;;;;;;15.15;11.15;;;17.30;99.90;;;;;;5099825;27;20179;-66
2022/08/23 03:37:07;;;;;;;15.80;10.88;;;17.30;99.90;;;;;;5119066;27;20171;-66
2022/08/23 03:39:32;;;;;;;18.20;10.50;;;17.30;99.90;;;;;;5136039;27;20045;-66
2022/08/23 03:41:58;;;;;;;16.80;10.75;;;17.40;99.90;;;;;;5134024;27;20038;-66
2022/08/23 03:44:24;;;;;;;14.98;11.23;;;17.40;99.90;;;;;;5108213;27;20114;-66
2022/08/23 03:46:50;;;;;;;17.67;11.70;;;17.50;99.90;;;;;;5118986;27;20117;-66
2022/08/23 03:49:15;;;;;;;18.65;12.32;;;17.40;99.90;;;;;;5100791;27;20043;-66
2022/08/23 03:51:41;;;;;;;16.73;12.20;;;17.30;99.90;;;;;;5116605;27;20078;-66
2022/08/23 03:54:07;;;;;;;15.13;12.77;;;17.20;99.90;;;;;;5118430;27;20074;-66
2022/08/23 03:56:37;;;;;;;18.40;12.48;;;17.20;99.90;;;;;;5099214;27;20107;-66
2022/08/23 03:59:10;;;;;;;14.02;11.43;;;17.00;99.90;;;;;;5114085;27;20415;-65
2022/08/23 04:01:36;;;;;;;15.73;12.95;;;17.00;99.90;;;;;;5094638;27;20483;-66
2022/08/23 04:04:02;;;;;;;19.55;17.38;;;16.80;99.90;;;;;;5110482;27;20123;-65
2022/08/23 04:06:31;;;;;;;19.40;15.63;;;16.90;99.90;;;;;;5095098;27;20055;-65
2022/08/23 04:08:58;;;;;;;18.40;15.93;;;17.00;99.90;;;;;;5110528;27;20227;-66
2022/08/23 04:11:24;;;;;;;17.83;14.77;;;17.00;99.90;;;;;;5112053;27;20055;-65
2022/08/23 04:13:51;;;;;;;16.42;13.18;;;17.20;99.90;;;;;;5110316;27;20774;-66
2022/08/23 04:16:17;;;;;;;13.73;10.30;;;17.50;99.90;;;;;;5110147;27;20200;-66
2022/08/23 04:18:44;;;;;;;14.77;10.13;;;17.60;99.90;;;;;;5111132;27;20050;-65
2022/08/23 04:21:15;;;;;;;14.93;9.95;;;17.70;99.90;;;;;;5085997;27;20054;-66
2022/08/23 04:23:42;;;;;;;11.65;9.98;;;17.80;99.90;;;;;;5111465;27;20047;-65
2022/08/23 04:26:08;;;;;;;14.45;10.63;;;17.80;99.90;;;;;;5094213;27;20049;-65
2022/08/23 04:28:34;;;;;;;17.33;10.60;;;17.90;99.90;;;;;;5086822;27;20051;-66
2022/08/23 04:31:01;;;;;;;14.23;10.68;;;17.80;99.90;;;;;;5115694;27;20034;-66
2022/08/23 04:33:31;;;;;;;17.48;11.52;;;17.70;99.90;;;;;;5111129;27;20288;-65
2022/08/23 04:35:58;;;;;;;14.60;12.32;;;17.70;99.90;;;;;;5110695;27;20053;-65
2022/08/23 04:38:24;;;;;;;14.90;10.95;;;17.50;99.90;;;;;;5110515;27;20174;-65
2022/08/23 04:43:34;;;;;;;14.88;12.15;;;17.40;99.90;;;;;;5113917;27;20123;-64
2022/08/23 04:46:00;;;;;;;18.10;12.55;;;17.20;99.90;;;;;;5114677;27;20125;-64
2022/08/23 04:48:25;;;;;;;19.15;13.82;;;17.20;99.90;;;;;;5113698;27;20047;-64
2022/08/23 04:50:51;;;;;;;22.60;17.75;;;17.00;99.90;;;;;;5115409;27;20034;-64
2022/08/23 04:53:18;;;;;;;19.55;16.42;;;17.00;99.90;;;;;;5095535;27;20291;-64
2022/08/23 04:55:44;;;;;;;23.15;17.65;;;16.90;99.90;;;;;;5114799;27;20046;-64
2022/08/23 04:58:10;;;;;;;22.38;18.23;;;16.90;99.90;;;;;;5132214;27;20516;-64
2022/08/23 05:00:35;;;;;;;22.35;19.35;;;16.80;99.90;;;;;;5114191;27;20045;-64
2022/08/23 05:03:01;;;;;;;29.45;21.98;;;16.80;99.90;;;;;;5114096;27;20415;-65
2022/08/23 05:05:27;;;;;;;27.10;23.30;;;16.80;99.90;;;;;;5096862;27;20053;-64
2022/08/23 05:07:53;;;;;;;29.33;26.15;;;16.70;99.90;;;;;;5097033;27;20329;-64
2022/08/23 05:10:19;;;;;;;29.25;25.02;;;16.80;99.90;;;;;;5108240;27;20528;-64
2022/08/23 05:12:47;;;;;;;38.28;26.98;;;16.70;99.90;;;;;;5113922;27;20070;-65
2022/08/23 05:15:13;;;;;;;32.55;24.67;;;16.70;99.90;;;;;;5130761;27;20540;-65
2022/08/23 05:17:39;;;;;;;28.42;21.60;;;16.90;99.90;;;;;;5096207;27;20296;-65
2022/08/23 05:20:06;;;;;;;34.08;25.73;;;17.10;99.90;;;;;;5097137;27;20066;-65
2022/08/23 05:22:33;;;;;;;41.03;36.45;;;17.30;99.90;;;;;;5113226;27;20129;-65
2022/08/23 05:24:59;;;;;;;42.55;38.17;;;17.40;99.90;;;;;;5112927;27;20049;-65
2022/08/23 05:27:25;;;;;;;41.53;36.80;;;17.40;99.90;;;;;;5113542;27;20540;-65
2022/08/23 05:29:53;;;;;;;39.08;35.08;;;17.40;99.90;;;;;;5112743;27;20198;-65
2022/08/23 05:32:19;;;;;;;46.28;37.78;;;17.40;99.90;;;;;;5112902;27;20319;-66
2022/08/23 05:34:45;;;;;;;41.60;37.47;;;17.50;99.90;;;;;;5131096;27;20776;-65
2022/08/23 05:37:11;;;;;;;45.20;40.40;;;17.50;99.90;;;;;;5097768;27;20034;-65
2022/08/23 05:39:37;;;;;;;42.75;38.15;;;17.60;99.90;;;;;;5133592;27;20038;-66
2022/08/23 05:42:04;;;;;;;34.42;30.83;;;17.90;99.90;;;;;;5114115;27;20202;-65
2022/08/23 05:44:30;;;;;;;18.52;16.63;;;18.20;99.90;;;;;;5114603;27;20467;-66
2022/08/23 05:46:56;;;;;;;14.30;12.80;;;18.40;99.90;;;;;;5087592;27;20058;-66
2022/08/23 05:49:22;;;;;;;13.98;10.98;;;18.60;99.90;;;;;;5112802;27;20107;-66
2022/08/23 05:51:47;;;;;;;11.50;8.88;;;18.90;99.90;;;;;;5132549;27;20049;-66
2022/08/23 05:54:13;;;;;;;10.88;8.70;;;19.40;99.90;;;;;;5095940;27;20293;-66
2022/08/23 05:56:42;;;;;;;12.10;7.60;;;19.80;99.90;;;;;;5119023;27;20351;-67
2022/08/23 05:59:10;;;;;;;10.40;7.20;;;20.00;99.90;;;;;;5113414;27;20327;-67
2022/08/23 06:01:37;;;;;;;7.82;6.22;;;20.30;99.90;;;;;;5097190;27;20311;-64
2022/08/23 06:04:05;;;;;;;10.63;6.25;;;20.30;99.90;;;;;;5114814;27;20333;-66
2022/08/23 06:06:33;;;;;;;9.77;5.85;;;20.50;99.90;;;;;;5116591;27;20475;-66
2022/08/23 06:08:59;;;;;;;9.07;5.97;;;20.70;99.90;;;;;;5132979;27;20141;-67
2022/08/23 06:11:27;;;;;;;10.63;5.80;;;21.00;99.90;;;;;;5098863;27;20057;-64
2022/08/23 06:13:56;;;;;;;7.25;4.93;;;21.30;99.90;;;;;;5099422;27;20512;-64
2022/08/23 06:16:25;;;;;;;8.63;4.55;;;21.60;99.90;;;;;;5098952;27;20280;-64
2022/08/23 06:18:53;;;;;;;8.68;4.07;;;21.80;99.90;;;;;;5099289;27;20049;-64
2022/08/23 06:21:19;;;;;;;11.15;4.80;;;22.00;99.90;;;;;;5134250;27;20488;-65
2022/08/23 06:23:46;;;;;;;7.88;4.13;;;22.10;99.90;;;;;;5134034;27;20118;-64
2022/08/23 06:26:17;;;;;;;7.47;4.38;;;22.00;99.90;;;;;;5098889;27;20126;-64
2022/08/23 06:28:48;;;;;;;8.93;4.60;;;21.80;99.90;;;;;;5116152;27;20107;-65
2022/08/23 06:31:15;;;;;;;8.82;4.20;;;21.70;99.90;;;;;;5114771;27;20039;-66
2022/08/23 06:33:42;;;;;;;7.50;4.18;;;21.50;99.90;;;;;;5133734;27;20424;-65
2022/08/23 06:36:12;;;;;;;9.30;4.10;;;21.40;99.90;;;;;;5115266;27;20148;-65
2022/08/23 06:38:38;;;;;;;7.10;4.20;;;21.30;99.90;;;;;;5114258;27;20098;-65
2022/08/23 06:41:10;;;;;;;7.30;4.10;;;21.20;99.90;;;;;;5112659;27;20067;-66
2022/08/23 06:43:37;;;;;;;7.20;3.45;;;21.20;99.90;;;;;;5113819;27;20125;-65
2022/08/23 06:46:13;;;;;;;9.73;3.75;;;21.40;99.90;;;;;;5096089;27;20046;-66
2022/08/23 06:48:39;;;;;;;5.18;3.65;;;21.70;99.90;;;;;;5112715;27;20034;-65
2022/08/23 06:51:14;;;;;;;9.30;4.10;;;21.80;99.90;;;;;;5097487;27;20385;-64
2022/08/23 06:53:39;;;;;;;8.07;3.63;;;21.90;99.90;;;;;;5114771;27;20663;-65
2022/08/23 06:56:06;;;;;;;5.93;3.80;;;22.00;99.90;;;;;;5097077;27;20042;-64
2022/08/23 06:58:31;;;;;;;7.32;3.60;;;22.30;99.90;;;;;;5114181;27;20061;-64
2022/08/23 07:01:22;;;;;;;11.02;4.13;;;22.50;99.90;;;;;;5112985;27;20035;-64
2022/08/23 07:03:56;;;;;;;8.07;4.00;;;22.70;99.90;;;;;;5111987;27;20532;-64
2022/08/23 07:06:27;;;;;;;6.40;3.70;;;22.90;99.90;;;;;;5112875;27;20039;-64
2022/08/23 07:08:53;;;;;;;7.30;3.85;;;23.10;99.90;;;;;;5092753;27;20135;-64
2022/08/23 07:11:20;;;;;;;6.70;3.78;;;23.20;99.90;;;;;;5108843;27;20082;-64
2022/08/23 07:13:47;;;;;;;10.27;4.10;;;23.40;99.90;;;;;;5111444;27;20256;-64
2022/08/23 07:16:16;;;;;;;10.88;3.67;;;23.60;99.90;;;;;;5109756;27;20047;-64
2022/08/23 07:18:43;;;;;;;8.68;3.30;;;23.60;99.90;;;;;;5108912;27;20786;-64
2022/08/23 07:21:09;;;;;;;6.80;2.92;;;23.90;99.90;;;;;;5110060;27;20100;-66
2022/08/23 07:23:35;;;;;;;8.32;2.72;;;24.10;99.90;;;;;;5109142;27;20038;-66
2022/08/23 07:26:08;;;;;;;5.93;2.88;;;24.00;99.90;;;;;;5092127;27;20031;-66
2022/08/23 07:28:34;;;;;;;8.48;2.60;;;24.30;99.90;;;;;;5113067;27;20126;-65
2022/08/23 07:31:29;;;;;;;5.00;2.17;;;24.50;99.90;;;;;;5111603;27;20640;-65
2022/08/23 07:33:57;;;;;;;7.78;2.28;;;24.80;99.90;;;;;;5109175;27;20085;-65
2022/08/23 07:36:25;;;;;;;13.20;3.05;;;24.90;99.90;;;;;;5113248;27;20050;-65
2022/08/23 07:38:52;;;;;;;14.10;2.78;;;25.30;99.90;;;;;;5111645;27;20370;-65
2022/08/23 07:41:19;;;;;;;9.02;2.70;;;25.40;99.90;;;;;;5093961;27;20045;-65
2022/08/23 07:43:45;;;;;;;6.90;2.33;;;25.50;99.90;;;;;;5112753;27;20050;-65
2022/08/23 07:46:11;;;;;;;4.78;2.60;;;25.70;99.90;;;;;;5094234;27;20341;-65
2022/08/23 07:48:38;;;;;;;6.53;2.30;;;25.60;99.90;;;;;;5092669;27;20039;-65
2022/08/23 07:51:08;;;;;;;6.70;2.47;;;25.80;99.90;;;;;;5111013;27;20043;-65
2022/08/23 07:53:34;;;;;;;8.55;2.90;;;25.70;99.90;;;;;;5112913;27;20443;-65
2022/08/23 07:56:04;;;;;;;6.40;2.50;;;25.80;99.90;;;;;;5093819;28;20095;-66
2022/08/23 07:58:30;;;;;;;6.20;2.60;;;26.10;99.90;;;;;;5112031;28;20219;-65
2022/08/23 08:00:56;;;;;;;13.05;3.60;;;25.90;99.90;;;;;;5111478;28;20045;-65
2022/08/23 08:03:21;;;;;;;6.60;2.35;;;25.80;99.90;;;;;;5111161;28;20131;-66
2022/08/23 08:05:47;;;;;;;29.08;5.28;;;25.90;99.90;;;;;;5111073;28;20051;-66
2022/08/23 08:08:13;;;;;;;5.97;2.42;;;26.10;99.90;;;;;;5093853;28;20504;-66
2022/08/23 08:10:40;;;;;;;8.15;2.45;;;26.10;99.90;;;;;;5110782;28;20061;-65
2022/08/23 08:13:07;;;;;;;6.20;2.05;;;26.10;99.90;;;;;;5111699;27;20092;-65
2022/08/23 08:15:33;;;;;;;7.22;2.78;;;25.90;99.90;;;;;;5117028;27;20042;-66
2022/08/23 08:17:59;;;;;;;5.40;1.67;;;26.00;99.90;;;;;;5116951;27;20047;-66
2022/08/23 08:20:27;;;;;;;5.50;1.90;;;26.10;99.90;;;;;;5116700;27;20054;-65
2022/08/23 08:22:54;;;;;;;7.55;2.03;;;26.20;99.90;;;;;;5097790;27;20489;-65
2022/08/23 08:25:20;;;;;;;6.13;1.98;;;26.40;99.90;;;;;;5114828;27;20696;-66
2022/08/23 08:27:47;;;;;;;4.75;2.08;;;26.50;99.90;;;;;;5114809;27;20039;-65
2022/08/23 08:30:13;;;;;;;5.65;1.67;;;26.60;99.90;;;;;;5116814;27;20042;-66
2022/08/23 08:32:39;;;;;;;6.32;2.17;;;26.80;99.90;;;;;;5115166;27;20074;-65
2022/08/23 08:35:05;;;;;;;7.30;2.50;;;26.70;99.90;;;;;;5114574;27;20131;-64
2022/08/23 08:37:31;;;;;;;8.00;2.13;;;26.20;99.90;;;;;;5114304;27;20516;-66
2022/08/23 08:39:58;;;;;;;5.30;2.10;;;25.90;99.90;;;;;;5114714;27;20046;-66
2022/08/23 08:42:58;;;;;;;5.82;2.10;;;26.00;99.90;;;;;;5114333;27;20046;-66
2022/08/23 08:45:31;;;;;;;4.55;1.83;;;26.10;99.90;;;;;;5097349;27;20074;-66
2022/08/23 08:48:02;;;;;;;8.50;2.10;;;26.30;99.90;;;;;;5114669;27;20588;-66
2022/08/23 08:50:40;;;;;;;7.95;2.20;;;26.90;99.90;;;;;;5114286;27;20501;-66
2022/08/23 08:53:15;;;;;;;7.78;2.13;;;27.10;99.90;;;;;;5114429;27;20220;-66
2022/08/23 08:55:46;;;;;;;5.65;2.00;;;27.50;99.90;;;;;;5097113;27;20043;-66
2022/08/23 08:58:32;;;;;;;8.97;2.10;;;27.50;99.90;;;;;;5130525;27;20074;-66
2022/08/23 09:00:58;;;;;;;6.38;1.92;;;27.70;99.90;;;;;;5113339;27;20264;-66
2022/08/23 09:03:30;;;;;;;4.57;1.88;;;28.00;99.60;;;;;;5113941;27;20043;-67
2022/08/23 09:06:01;;;;;;;;;;;28.20;98.80;;;;;;5098137;27;20655;-63
2022/08/23 09:08:36;;;;;;;4.80;2.10;;;28.20;99.50;;;;;;5114316;27;19923;-64
2022/08/23 09:11:23;;;;;;;2.95;1.70;;;28.40;95.80;;;;;;5113777;27;20043;-64
2022/08/23 09:14:48;;;;;;;4.90;2.15;;;28.80;97.30;;;;;;5113705;27;20081;-64
2022/08/23 09:17:39;;;;;;;5.63;3.35;;;29.00;94.70;;;;;;5091453;28;21303;-64
2022/08/23 09:20:06;;;;;;;5.03;2.65;;;28.90;93.70;;;;;;5091236;28;20099;-66
2022/08/23 09:22:44;;;;;;;6.57;2.60;;;28.50;95.60;;;;;;5098291;27;20084;-65
2022/08/23 09:25:13;;;;;;;4.05;2.30;;;28.00;97.20;;;;;;5113335;27;20054;-65
2022/08/23 09:27:42;;;;;;;8.52;2.35;;;27.70;97.70;;;;;;5114237;27;20078;-64
2022/08/23 09:30:13;;;;;;;4.50;2.15;;;27.50;99.00;;;;;;5113873;27;20501;-65
2022/08/23 09:32:42;;;;;;;6.50;2.20;;;27.50;99.90;;;;;;5097038;27;20046;-65
2022/08/23 09:35:16;;;;;;;4.38;1.90;;;27.50;99.90;;;;;;5113021;27;20035;-65
2022/08/23 09:37:45;;;;;;;4.13;2.00;;;27.70;99.80;;;;;;5113434;27;20465;-65
2022/08/23 09:40:24;;;;;;;4.68;2.30;;;27.80;98.40;;;;;;5096474;27;20047;-65
2022/08/23 09:43:27;;;;;;;7.18;2.33;;;28.10;99.90;;;;;;5113647;27;20466;-65
2022/08/23 09:45:57;;;;;;;4.40;1.88;;;28.10;99.90;;;;;;5094158;27;20043;-65
2022/08/23 09:48:44;;;;;;;7.25;2.15;;;28.10;99.90;;;;;;5113364;27;20055;-64
2022/08/23 09:51:33;;;;;;;6.38;1.75;;;28.00;99.90;;;;;;5115223;27;20766;-65
2022/08/23 09:54:11;;;;;;;6.00;2.00;;;27.80;99.90;;;;;;5114703;27;20061;-65
2022/08/23 09:56:39;;;;;;;9.90;2.15;;;27.70;99.90;;;;;;5114696;27;20213;-64
2022/08/23 09:59:24;;;;;;;3.67;1.73;;;27.90;99.90;;;;;;5096862;27;20047;-64
2022/08/23 10:01:51;;;;;;;5.72;2.25;;;28.20;99.90;;;;;;5114352;27;20086;-65
2022/08/23 10:04:28;;;;;;;9.73;2.38;;;28.20;99.90;;;;;;5112700;27;20277;-65
2022/08/23 10:06:54;;;;;;;5.32;1.70;;;28.20;99.90;;;;;;5114423;27;20776;-65
2022/08/23 10:09:23;;;;;;;4.30;1.85;;;28.30;99.90;;;;;;5116649;27;20073;-65
2022/08/23 10:11:49;;;;;;;5.50;2.17;;;28.40;97.90;;;;;;5116108;27;20121;-66
2022/08/23 10:14:18;;;;;;;4.70;1.90;;;28.30;99.20;;;;;;5116369;27;20234;-65
2022/08/23 10:17:03;;;;;;;7.35;1.88;;;28.00;99.90;;;;;;5116415;27;20113;-65
2022/08/23 10:19:50;;;;;;;5.78;2.28;;;28.00;99.90;;;;;;5135230;27;20562;-65
2022/08/23 10:22:35;;;;;;;6.18;2.20;;;27.90;99.90;;;;;;5116345;27;20338;-65
2022/08/23 10:25:16;;;;;;;2.92;1.60;;;28.00;99.90;;;;;;5116504;27;20038;-66
2022/08/23 10:31:43;;;;;;;5.47;2.28;;;28.00;99.90;;;;;;5116256;27;20287;-66
2022/08/23 10:34:17;;;;;;;;;;;28.20;99.90;;;;;;5099144;27;20217;-66
2022/08/23 10:37:04;;;;;;;5.45;2.05;;;28.20;99.90;;;;;;5114988;27;20704;-66
2022/08/23 10:39:31;;;;;;;5.20;1.90;;;28.30;99.90;;;;;;5116074;27;20129;-66
2022/08/23 10:41:59;;;;;;;6.68;2.28;;;28.40;99.90;;;;;;5116042;27;20039;-65
2022/08/23 10:44:32;;;;;;;5.20;1.90;;;28.30;99.90;;;;;;5098850;27;20146;-65
2022/08/23 10:47:07;;;;;;;6.35;2.58;;;28.30;99.00;;;;;;5115282;27;20054;-65
2022/08/23 10:49:38;;;;;;;4.82;2.60;;;28.30;98.70;;;;;;5098146;27;20173;-65
2022/08/23 10:52:06;;;;;;;6.50;2.22;;;28.30;99.90;;;;;;5116104;27;20605;-65
2022/08/23 10:54:47;;;;;;;5.10;2.20;;;28.60;98.60;;;;;;5134279;27;20178;-67
2022/08/23 10:57:19;;;;;;;6.13;2.28;;;28.80;95.00;;;;;;5115510;27;20130;-66
2022/08/23 10:59:46;;;;;;;6.93;2.70;;;28.90;94.50;;;;;;5115151;27;20520;-66
2022/08/23 11:02:37;;;;;;;6.53;2.60;;;28.90;93.30;;;;;;5134405;27;20618;-67
2022/08/23 11:05:26;;;;;;;5.60;2.67;;;28.80;94.80;;;;;;5133540;27;20345;-66
2022/08/23 11:08:08;;;;;;;6.93;2.50;;;28.80;95.40;;;;;;5115383;27;20552;-65
2022/08/23 11:10:36;;;;;;;6.22;2.33;;;28.70;95.10;;;;;;5115264;27;20236;-66
2022/08/23 11:13:05;;;;;;;5.45;1.98;;;28.80;92.20;;;;;;5114811;27;20079;-65
2022/08/23 11:15:43;;;;;;;3.63;1.60;;;28.90;90.60;;;;;;5115091;27;20047;-66
2022/08/23 11:18:47;;;;;;;5.88;2.13;;;29.00;92.60;;;;;;5115281;27;20633;-65
2022/08/23 11:21:16;;;;;;;5.57;2.13;;;29.30;88.80;;;;;;5115443;27;20282;-65
2022/08/23 11:23:57;;;;;;;4.95;2.55;;;29.30;87.70;;;;;;5097774;27;20042;-66
2022/08/23 11:26:30;;;;;;;8.70;2.30;;;29.40;90.20;;;;;;5134101;27;20083;-65
2022/08/23 11:29:04;;;;;;;7.30;1.80;;;29.60;91.40;;;;;;5115043;27;20065;-65
2022/08/23 11:32:09;;;;;;;6.68;1.90;;;29.80;91.00;;;;;;5115668;27;20464;-66
2022/08/23 11:34:54;;;;;;;4.13;1.27;;;30.20;87.60;;;;;;5094524;27;20504;-66
2022/08/23 11:37:19;;;;;;;6.22;1.50;;;30.70;82.90;;;;;;5114838;27;20385;-66
2022/08/23 11:39:57;;;;;;;4.43;1.30;;;30.70;77.60;;;;;;5114311;27;20045;-65
2022/08/23 11:42:37;;;;;;;5.30;1.73;;;30.70;80.10;;;;;;5097766;27;20481;-65
2022/08/23 11:45:49;;;;;;;3.05;1.50;;;30.70;74.90;;;;;;5114962;27;20257;-66
2022/08/23 11:48:35;;;;;;;5.15;1.35;;;30.70;78.10;;;;;;5101140;27;20340;-66
2022/08/23 11:51:19;;;;;;;3.75;1.23;;;30.60;80.70;;;;;;5133181;27;20121;-65
2022/08/23 11:53:59;;;;;;;4.13;1.23;;;30.80;74.50;;;;;;5114285;27;20039;-65
2022/08/23 11:56:54;;;;;;;4.95;1.60;;;31.10;77.30;;;;;;5114393;27;20043;-65
2022/08/23 11:59:28;;;;;;;4.85;0.90;;;31.10;75.00;;;;;;5097134;27;20181;-65
2022/08/23 12:01:54;;;;;;;2.45;0.80;;;31.10;71.40;;;;;;5114810;27;20035;-65
2022/08/23 12:04:32;;;;;;;3.40;0.82;;;31.00;68.50;;;;;;5114177;27;20050;-65
2022/08/23 12:07:11;;;;;;;5.28;1.10;;;31.20;69.70;;;;;;5132554;27;20251;-66
2022/08/23 12:09:40;;;;;;;2.85;0.80;;;31.40;67.30;;;;;;5114055;27;20227;-66
2022/08/23 12:12:28;;;;;;;5.25;1.00;;;31.40;65.30;;;;;;5114420;27;20047;-66
2022/08/23 12:15:00;;;;;;;4.30;0.73;;;31.20;67.90;;;;;;5114223;27;20595;-65
2022/08/23 12:17:26;;;;;;;5.50;0.80;;;31.30;68.00;;;;;;5114417;27;20119;-66
2022/08/23 12:20:06;;;;;;;2.92;0.77;;;31.40;62.30;;;;;;5114181;27;20730;-65
2022/08/23 12:22:54;;;;;;;6.95;1.35;;;31.60;66.00;;;;;;5114849;27;20057;-65
2022/08/23 12:25:22;;;;;;;6.45;0.95;;;31.40;67.60;;;;;;5114120;27;20045;-66
2022/08/23 12:27:55;;;;;;;4.90;0.90;;;31.20;66.80;;;;;;5097391;27;20047;-65
2022/08/23 12:30:22;;;;;;;2.35;0.60;;;31.20;63.10;;;;;;5132834;27;20047;-65
2022/08/23 12:33:06;;;;;;;2.45;0.60;;;31.20;60.50;;;;;;5113652;27;20133;-65
2022/08/23 12:35:49;;;;;;;4.03;0.85;;;31.30;59.70;;;;;;5097874;27;20043;-66
2022/08/23 12:38:46;;;;;;;4.82;0.93;;;31.30;62.70;;;;;;5114415;27;20120;-66
2022/08/23 12:41:26;;;;;;;4.10;0.90;;;31.50;60.30;;;;;;5114784;27;20042;-65
2022/08/23 12:44:08;;;;;;;3.53;0.82;;;31.80;54.80;;;;;;5132484;27;20079;-66
2022/08/23 12:46:40;;;;;;;3.67;0.80;;;31.90;60.10;;;;;;5114333;27;20422;-66
2022/08/23 12:49:09;;;;;;;2.38;0.60;;;32.20;62.10;;;;;;5114087;27;20046;-66
2022/08/23 12:51:48;;;;;;;3.17;0.57;;;32.30;57.00;;;;;;5113474;27;20086;-65
2022/08/23 12:54:17;;;;;;;4.10;0.88;;;32.50;55.70;;;;;;5113660;27;20046;-65
2022/08/23 12:56:49;;;;;;;4.43;0.70;;;32.80;54.90;;;;;;5113686;27;20111;-65
2022/08/23 12:59:51;;;;;;;4.50;0.60;;;32.80;54.90;;;;;;5114058;27;20134;-66
2022/08/23 13:02:30;;;;;;;2.72;0.50;;;32.90;54.30;;;;;;5117623;27;20404;-67
2022/08/23 13:05:08;;;;;;;3.50;0.60;;;33.40;50.40;;;;;;5117429;27;20081;-66
2022/08/23 13:07:35;;;;;;;3.30;0.60;;;33.60;46.50;;;;;;5099761;27;20058;-65
2022/08/23 13:10:01;;;;;;;2.60;0.55;;;33.60;43.70;;;;;;5117680;27;20568;-67
2022/08/23 13:12:27;;;;;;;2.45;0.63;;;33.30;46.20;;;;;;5117687;27;20370;-66